createdAt,value
2023-03-21T00:00:29.515Z,5.60
2023-03-21T00:02:56.528Z,5.75
2023-03-21T00:05:23.472Z,5.63
2023-03-21T00:07:50.492Z,5.28
2023-03-21T00:10:26.777Z,5.63
2023-03-21T00:12:59.872Z,5.18
2023-03-21T00:15:39.286Z,5.10
2023-03-21T00:18:11.391Z,5.68
2023-03-21T00:20:38.210Z,5.30
2023-03-21T00:23:04.992Z,5.32
2023-03-21T00:25:32.893Z,5.82
2023-03-21T00:28:08.022Z,5.45
2023-03-21T00:30:35.445Z,5.57
2023-03-21T00:33:12.056Z,6.30
2023-03-21T00:36:02.574Z,5.45
2023-03-21T00:38:34.163Z,4.90
2023-03-21T00:41:11.004Z,5.97
2023-03-21T00:43:44.388Z,5.72
2023-03-21T00:46:11.184Z,6.53
2023-03-21T00:48:39.394Z,5.35
2023-03-21T00:51:25.850Z,5.72
2023-03-21T00:53:58.200Z,5.90
2023-03-21T00:56:27.727Z,6.03
2023-03-21T00:58:54.470Z,5.72
2023-03-21T01:01:21.288Z,5.63
2023-03-21T01:03:50.915Z,6.43
2023-03-21T01:06:20.836Z,6.65
2023-03-21T01:08:52.617Z,6.55
2023-03-21T01:11:25.926Z,6.40
2023-03-21T01:13:59.597Z,6.55
2023-03-21T01:16:29.223Z,6.30
2023-03-21T01:18:56.648Z,5.50
2023-03-21T01:21:23.390Z,6.28
2023-03-21T01:23:50.633Z,5.35
2023-03-21T01:26:17.533Z,6.38
2023-03-21T01:28:45.253Z,6.53
2023-03-21T01:31:15.189Z,6.43
2023-03-21T01:33:43.575Z,7.03
2023-03-21T01:36:17.931Z,6.05
2023-03-21T01:38:45.844Z,5.85
2023-03-21T01:41:33.676Z,6.75
2023-03-21T01:44:05.960Z,6.53
2023-03-21T01:49:59.371Z,6.40
2023-03-21T01:52:38.763Z,6.13
2023-03-21T01:55:12.638Z,6.43
2023-03-21T01:58:06.314Z,6.68
2023-03-21T02:00:43.660Z,6.40
2023-03-21T02:03:35.241Z,6.10
2023-03-21T02:06:50.359Z,6.60
2023-03-21T02:09:32.369Z,6.72
2023-03-21T02:12:00.258Z,6.40
2023-03-21T02:14:34.515Z,5.93
2023-03-21T02:17:13.969Z,5.90
2023-03-21T02:20:08.717Z,6.05
2023-03-21T02:23:02.842Z,6.30
2023-03-21T02:25:54.309Z,6.10
2023-03-21T02:28:31.288Z,6.03
2023-03-21T02:31:15.664Z,6.35
2023-03-21T02:34:10.204Z,6.28
2023-03-21T02:37:03.183Z,6.75
2023-03-21T02:39:49.258Z,6.40
2023-03-21T02:42:42.056Z,7.50
2023-03-21T02:45:20.240Z,6.18
2023-03-21T02:48:04.500Z,6.43
2023-03-21T02:50:41.740Z,6.82
2023-03-21T02:53:12.820Z,6.43
2023-03-21T02:55:42.954Z,6.40
2023-03-21T02:58:13.805Z,6.57
2023-03-21T03:00:50.077Z,6.78
2023-03-21T03:03:34.806Z,6.72
2023-03-21T03:06:13.409Z,6.30
2023-03-21T03:09:12.848Z,6.00
2023-03-21T03:11:43.209Z,6.72
2023-03-21T03:14:56.456Z,7.40
2023-03-21T03:17:27.949Z,6.70
2023-03-21T03:20:32.177Z,7.95
2023-03-21T03:23:34.307Z,7.05
2023-03-21T03:26:26.372Z,6.38
2023-03-21T03:29:01.113Z,7.07
2023-03-21T03:31:34.478Z,6.97
2023-03-21T03:34:14.118Z,7.03
2023-03-21T03:36:47.479Z,7.47
2023-03-21T03:39:18.208Z,7.10
2023-03-21T03:42:15.534Z,7.38
2023-03-21T03:44:53.112Z,6.97
2023-03-21T03:47:56.760Z,7.47
2023-03-21T03:50:38.693Z,6.75
2023-03-21T03:53:28.570Z,6.40
2023-03-21T03:55:57.417Z,7.22
2023-03-21T03:58:36.162Z,7.05
2023-03-21T04:01:07.477Z,6.82
2023-03-21T04:03:48.377Z,6.47
2023-03-21T04:06:18.129Z,6.10
2023-03-21T04:08:45.350Z,6.45
2023-03-21T04:11:15.795Z,6.25
2023-03-21T04:13:46.864Z,6.50
2023-03-21T04:16:19.779Z,6.10
2023-03-21T04:18:47.661Z,6.78
2023-03-21T04:21:18.476Z,6.22
2023-03-21T04:23:45.392Z,6.30
2023-03-21T04:26:12.231Z,6.38
2023-03-21T04:28:43.740Z,6.15
2023-03-21T04:31:27.181Z,7.13
2023-03-21T04:34:09.813Z,7.15
2023-03-21T04:36:47.524Z,7.05
2023-03-21T04:39:15.243Z,7.82
2023-03-21T04:41:46.270Z,8.10
2023-03-21T04:44:15.503Z,7.50
2023-03-21T04:46:42.604Z,7.80
2023-03-21T04:49:10.829Z,7.38
2023-03-21T04:51:38.753Z,7.30
2023-03-21T04:56:36.578Z,8.40
2023-03-21T04:59:09.821Z,8.15
2023-03-21T05:01:37.144Z,7.57
2023-03-21T05:04:04.399Z,7.80
2023-03-21T05:06:33.461Z,7.78
2023-03-21T05:09:05.201Z,6.22
2023-03-21T05:11:37.484Z,7.20
2023-03-21T05:14:05.678Z,6.50
2023-03-21T05:16:32.805Z,6.90
2023-03-21T05:19:03.841Z,6.07
2023-03-21T05:21:41.191Z,6.38
2023-03-21T05:24:20.266Z,6.53
2023-03-21T05:26:50.792Z,6.07
2023-03-21T05:29:19.690Z,5.70
2023-03-21T05:31:52.989Z,6.35
2023-03-21T05:34:20.647Z,6.05
2023-03-21T05:36:47.562Z,5.90
2023-03-21T05:39:14.316Z,5.88
2023-03-21T05:41:46.641Z,5.95
2023-03-21T05:44:14.086Z,5.75
2023-03-21T05:46:40.960Z,5.57
2023-03-21T05:49:07.978Z,5.82
2023-03-21T05:51:35.257Z,6.45
2023-03-21T05:54:01.919Z,6.57
2023-03-21T05:56:29.689Z,6.22
2023-03-21T05:59:01.691Z,6.60
2023-03-21T06:01:30.913Z,6.18
2023-03-21T06:04:07.262Z,6.47
2023-03-21T06:06:34.335Z,6.72
2023-03-21T06:09:01.953Z,6.72
2023-03-21T06:11:34.062Z,7.50
2023-03-21T06:14:25.405Z,7.50
2023-03-21T06:17:13.159Z,9.27
2023-03-21T06:20:05.050Z,9.30
2023-03-21T06:22:36.410Z,9.65
2023-03-21T06:25:04.721Z,9.20
2023-03-21T06:27:31.399Z,9.45
2023-03-21T06:29:59.398Z,9.32
2023-03-21T06:32:27.614Z,10.15
2023-03-21T06:34:58.447Z,9.35
2023-03-21T06:37:26.450Z,10.85
2023-03-21T06:39:55.485Z,10.43
2023-03-21T06:42:23.031Z,10.40
2023-03-21T06:44:51.265Z,10.27
2023-03-21T06:47:18.104Z,10.52
2023-03-21T06:49:46.285Z,10.35
2023-03-21T06:52:13.469Z,10.88
2023-03-21T06:54:42.228Z,12.80
2023-03-21T06:57:14.155Z,12.10
2023-03-21T06:59:44.152Z,11.10
2023-03-21T07:02:15.884Z,11.27
2023-03-21T07:04:59.695Z,11.68
2023-03-21T07:07:29.674Z,11.20
2023-03-21T07:09:56.593Z,11.13
2023-03-21T07:12:24.595Z,10.95
2023-03-21T07:15:10.089Z,9.93
2023-03-21T07:17:38.485Z,9.95
2023-03-21T07:20:08.711Z,9.98
2023-03-21T07:22:36.213Z,9.90
2023-03-21T07:25:05.404Z,8.85
2023-03-21T07:27:40.658Z,10.02
2023-03-21T07:30:08.717Z,9.32
2023-03-21T07:32:37.733Z,8.60
2023-03-21T07:35:06.078Z,8.30
2023-03-21T07:37:32.703Z,8.20
2023-03-21T07:39:59.727Z,8.05
2023-03-21T07:42:26.489Z,8.30
2023-03-21T07:44:59.238Z,7.50
2023-03-21T07:47:29.587Z,7.20
2023-03-21T07:49:56.292Z,7.28
2023-03-21T07:52:23.011Z,7.25
2023-03-21T07:54:49.629Z,7.50
2023-03-21T07:57:17.401Z,7.93
2023-03-21T07:59:44.181Z,7.00
2023-03-21T08:02:14.891Z,7.32
2023-03-21T08:04:41.653Z,6.90
2023-03-21T08:07:08.522Z,7.45
2023-03-21T08:09:36.116Z,7.13
2023-03-21T08:12:04.067Z,6.38
2023-03-21T08:14:30.802Z,7.57
2023-03-21T08:16:57.613Z,6.60
2023-03-21T08:19:24.322Z,6.93
2023-03-21T08:21:51.918Z,6.78
2023-03-21T08:24:19.274Z,6.20
2023-03-21T08:26:46.528Z,6.38
2023-03-21T08:29:13.598Z,6.93
2023-03-21T08:31:41.320Z,7.95
2023-03-21T08:34:08.109Z,7.38
2023-03-21T08:36:36.845Z,6.88
2023-03-21T08:39:05.488Z,6.95
2023-03-21T08:41:36.380Z,6.20
2023-03-21T08:44:05.723Z,6.15
2023-03-21T08:46:32.770Z,6.43
2023-03-21T08:48:59.482Z,6.45
2023-03-21T08:51:26.153Z,6.28
2023-03-21T08:53:52.905Z,6.40
2023-03-21T08:56:19.603Z,6.40
2023-03-21T08:58:47.311Z,7.13
2023-03-21T09:01:15.538Z,6.93
2023-03-21T09:03:43.590Z,7.30
2023-03-21T09:06:13.475Z,7.03
2023-03-21T09:08:41.826Z,6.95
2023-03-21T09:11:09.605Z,6.13
2023-03-21T09:13:36.502Z,7.30
2023-03-21T09:16:03.837Z,6.65
2023-03-21T09:18:47.303Z,5.90
2023-03-21T09:21:16.046Z,5.63
2023-03-21T09:23:44.690Z,7.38
2023-03-21T09:26:12.429Z,7.95
2023-03-21T09:28:40.367Z,7.40
2023-03-21T09:31:08.919Z,6.07
2023-03-21T09:33:35.957Z,6.15
2023-03-21T09:36:03.584Z,5.15
2023-03-21T09:38:30.409Z,6.28
2023-03-21T09:41:16.248Z,7.35
2023-03-21T09:44:10.681Z,6.18
2023-03-21T09:46:43.207Z,5.70
2023-03-21T09:49:18.718Z,5.20
2023-03-21T09:51:50.992Z,5.95
2023-03-21T09:54:21.274Z,6.35
2023-03-21T09:56:51.264Z,5.60
2023-03-21T09:59:33.382Z,5.32
2023-03-21T10:02:01.716Z,5.20
2023-03-21T10:04:29.421Z,6.03
2023-03-21T10:07:02.070Z,5.90
2023-03-21T10:09:30.368Z,5.40
2023-03-21T10:12:04.278Z,5.95
2023-03-21T10:14:34.001Z,5.75
2023-03-21T10:17:24.618Z,5.60
2023-03-21T10:20:15.930Z,5.35
2023-03-21T10:22:45.892Z,6.07
2023-03-21T10:25:24.547Z,6.60
2023-03-21T10:27:52.647Z,5.68
2023-03-21T10:30:25.494Z,6.25
2023-03-21T10:32:52.428Z,4.95
2023-03-21T10:35:19.755Z,5.43
2023-03-21T10:37:46.891Z,5.40
2023-03-21T10:40:17.185Z,5.40
2023-03-21T10:42:44.176Z,5.57
2023-03-21T10:45:17.580Z,5.05
2023-03-21T10:47:48.381Z,5.28
2023-03-21T10:50:17.886Z,5.18
2023-03-21T10:52:50.867Z,5.78
2023-03-21T10:55:17.661Z,4.70
2023-03-21T10:57:46.606Z,5.32
2023-03-21T11:00:22.422Z,5.38
2023-03-21T11:02:51.489Z,5.20
2023-03-21T11:05:40.137Z,5.78
2023-03-21T11:08:13.963Z,5.88
2023-03-21T11:11:01.314Z,5.43
2023-03-21T11:13:37.712Z,6.32
2023-03-21T11:16:30.256Z,5.97
2023-03-21T11:19:01.402Z,6.10
2023-03-21T11:21:29.657Z,5.60
2023-03-21T11:23:57.314Z,6.53
2023-03-21T11:26:30.802Z,6.45
2023-03-21T11:28:58.374Z,6.20
2023-03-21T11:31:41.367Z,6.00
2023-03-21T11:34:09.537Z,5.80
2023-03-21T11:36:41.356Z,6.40
2023-03-21T11:39:39.524Z,6.65
2023-03-21T11:42:28.718Z,6.95
2023-03-21T11:45:10.332Z,6.88
2023-03-21T11:47:37.302Z,6.68
2023-03-21T11:50:29.818Z,6.95
2023-03-21T11:53:11.719Z,6.82
2023-03-21T11:55:50.212Z,6.93
2023-03-21T11:58:28.341Z,5.82
2023-03-21T12:01:09.066Z,6.13
2023-03-21T12:04:04.495Z,5.95
2023-03-21T12:06:52.730Z,5.97
2023-03-21T12:09:45.757Z,4.97
2023-03-21T12:12:32.982Z,4.85
2023-03-21T12:15:13.924Z,4.95
2023-03-21T12:18:05.549Z,4.88
2023-03-21T12:20:49.820Z,4.45
2023-03-21T12:23:41.273Z,5.72
2023-03-21T12:26:31.920Z,4.90
2023-03-21T12:29:11.115Z,4.90
2023-03-21T12:31:47.032Z,4.50
2023-03-21T12:34:16.702Z,4.38
2023-03-21T12:37:14.767Z,4.70
2023-03-21T12:39:41.624Z,4.57
2023-03-21T12:42:39.362Z,4.57
2023-03-21T12:45:18.857Z,4.20
2023-03-21T12:47:53.264Z,3.40
2023-03-21T12:50:32.825Z,4.55
2023-03-21T12:53:07.695Z,3.88
2023-03-21T12:55:35.859Z,2.80
2023-03-21T12:58:24.527Z,3.63
2023-03-21T13:01:01.403Z,3.40
2023-03-21T13:03:40.387Z,3.17
2023-03-21T13:06:18.073Z,2.85
2023-03-21T13:08:51.148Z,2.88
2023-03-21T13:11:21.622Z,2.55
2023-03-21T13:14:11.544Z,2.80
2023-03-21T13:16:52.582Z,2.50
2023-03-21T13:19:34.456Z,2.50
2023-03-21T13:22:12.245Z,2.50
2023-03-21T13:24:43.755Z,2.72
2023-03-21T13:27:45.990Z,2.58
2023-03-21T13:30:20.536Z,2.70
2023-03-21T13:32:55.316Z,2.55
2023-03-21T13:35:29.160Z,2.70
2023-03-21T13:38:12.655Z,2.65
2023-03-21T13:40:51.707Z,2.50
2023-03-21T13:43:42.584Z,2.90
2023-03-21T13:46:50.540Z,2.90
2023-03-21T13:49:36.699Z,2.92
2023-03-21T13:52:09.642Z,3.00
2023-03-21T13:54:39.001Z,2.90
2023-03-21T13:57:06.608Z,3.10
2023-03-21T13:59:38.282Z,3.05
2023-03-21T14:02:22.735Z,3.03
2023-03-21T14:05:07.395Z,3.10
2023-03-21T14:07:40.977Z,3.13
2023-03-21T14:10:29.475Z,2.90
2023-03-21T14:12:56.951Z,2.97
2023-03-21T14:15:27.631Z,3.03
2023-03-21T14:17:55.490Z,3.35
2023-03-21T14:20:34.001Z,2.80
2023-03-21T14:23:03.202Z,2.97
2023-03-21T14:25:40.975Z,2.83
2023-03-21T14:28:18.916Z,3.33
2023-03-21T14:30:50.139Z,3.00
2023-03-21T14:33:39.437Z,2.60
2023-03-21T14:36:18.900Z,2.80
2023-03-21T14:38:57.072Z,2.47
2023-03-21T14:41:26.501Z,2.40
2023-03-21T14:44:15.296Z,1.83
2023-03-21T14:46:43.085Z,2.00
2023-03-21T14:49:28.145Z,2.03
2023-03-21T14:51:57.916Z,1.73
2023-03-21T14:54:27.155Z,2.15
2023-03-21T14:57:01.418Z,2.17
2023-03-21T14:59:32.101Z,2.13
2023-03-21T15:02:03.578Z,1.60
2023-03-21T15:04:31.786Z,1.70
2023-03-21T15:07:04.874Z,1.60
2023-03-21T15:09:34.523Z,1.98
2023-03-21T15:12:01.779Z,1.92
2023-03-21T15:14:36.688Z,1.60
2023-03-21T15:17:05.091Z,1.90
2023-03-21T15:19:34.599Z,1.70
2023-03-21T15:22:10.892Z,2.35
2023-03-21T15:24:42.152Z,2.05
2023-03-21T15:27:16.018Z,1.75
2023-03-21T15:29:43.711Z,2.58
2023-03-21T15:32:18.769Z,2.05
2023-03-21T15:34:46.203Z,1.88
2023-03-21T15:37:24.064Z,1.73
2023-03-21T15:39:52.372Z,2.45
2023-03-21T15:42:31.975Z,2.00
2023-03-21T15:45:02.280Z,2.20
2023-03-21T15:47:47.962Z,2.40
2023-03-21T15:50:27.265Z,2.58
2023-03-21T15:52:55.477Z,2.05
2023-03-21T15:55:35.342Z,2.60
2023-03-21T15:58:16.346Z,2.42
2023-03-21T16:01:04.156Z,2.70
2023-03-21T16:03:37.704Z,2.40
2023-03-21T16:06:19.697Z,1.95
2023-03-21T16:08:51.945Z,2.60
2023-03-21T16:11:28.245Z,2.47
2023-03-21T16:13:56.146Z,2.15
2023-03-21T16:16:25.387Z,2.40
2023-03-21T16:18:53.196Z,2.60
2023-03-21T16:21:24.048Z,2.55
2023-03-21T16:23:51.078Z,2.40
2023-03-21T16:26:23.546Z,2.50
2023-03-21T16:28:50.724Z,2.80
2023-03-21T16:31:19.949Z,2.60
2023-03-21T16:33:47.338Z,2.50
2023-03-21T16:36:27.513Z,2.80
2023-03-21T16:38:55.114Z,3.15
2023-03-21T16:41:26.246Z,3.28
2023-03-21T16:43:53.646Z,2.95
2023-03-21T16:46:26.048Z,3.10
2023-03-21T16:48:55.435Z,2.83
2023-03-21T16:51:33.775Z,2.67
2023-03-21T16:54:01.121Z,2.90
2023-03-21T16:56:29.724Z,2.80
2023-03-21T16:58:57.907Z,2.70
2023-03-21T17:01:29.851Z,3.10
2023-03-21T17:04:00.236Z,2.70
2023-03-21T17:06:28.716Z,3.03
2023-03-21T17:08:56.759Z,2.70
2023-03-21T17:11:26.728Z,2.70
2023-03-21T17:13:55.046Z,2.60
2023-03-21T17:16:26.835Z,2.53
2023-03-21T17:18:54.389Z,2.88
2023-03-21T17:21:23.759Z,2.95
2023-03-21T17:23:52.729Z,2.78
2023-03-21T17:26:27.891Z,3.10
2023-03-21T17:28:59.752Z,3.35
2023-03-21T17:31:28.202Z,3.25
2023-03-21T17:33:54.835Z,3.03
2023-03-21T17:36:29.815Z,3.30
2023-03-21T17:38:57.763Z,3.00
2023-03-21T17:41:24.790Z,3.30
2023-03-21T17:43:52.170Z,3.05
2023-03-21T17:46:22.316Z,2.92
2023-03-21T17:48:49.433Z,2.55
2023-03-21T17:51:16.969Z,3.15
2023-03-21T17:53:49.085Z,3.60
2023-03-21T17:56:20.034Z,3.53
2023-03-21T17:58:47.157Z,3.30
2023-03-21T18:01:14.343Z,4.00
2023-03-21T18:03:41.201Z,3.20
2023-03-21T18:06:14.987Z,3.72
2023-03-21T18:08:42.264Z,4.47
2023-03-21T18:11:12.499Z,3.70
2023-03-21T18:13:40.429Z,3.40
2023-03-21T18:16:07.947Z,2.85
2023-03-21T18:18:35.022Z,3.38
2023-03-21T18:21:02.087Z,3.40
2023-03-21T18:23:29.025Z,3.22
2023-03-21T18:25:55.742Z,2.60
2023-03-21T18:28:22.546Z,3.20
2023-03-21T18:31:07.433Z,3.05
2023-03-21T18:33:37.844Z,3.17
2023-03-21T18:36:07.457Z,3.20
2023-03-21T18:38:35.377Z,3.60
2023-03-21T18:41:02.080Z,4.05
2023-03-21T18:46:16.276Z,3.65
2023-03-21T18:48:43.241Z,3.53
2023-03-21T18:51:10.099Z,3.50
2023-03-21T18:53:36.853Z,4.72
2023-03-21T18:56:09.312Z,4.10
2023-03-21T18:58:37.189Z,4.25
2023-03-21T19:01:05.038Z,5.03
2023-03-21T19:03:37.130Z,5.18
2023-03-21T19:06:05.546Z,5.25
2023-03-21T19:08:34.768Z,5.80
2023-03-21T19:11:05.964Z,6.20
2023-03-21T19:13:33.921Z,5.82
2023-03-21T19:16:02.670Z,6.53
2023-03-21T19:18:52.174Z,6.22
2023-03-21T19:21:19.043Z,5.65
2023-03-21T19:26:32.546Z,4.43
2023-03-21T19:28:59.285Z,3.53
2023-03-21T19:31:26.691Z,4.50
2023-03-21T19:33:53.351Z,4.88
2023-03-21T19:36:22.693Z,4.95
2023-03-21T19:38:50.541Z,4.10
2023-03-21T19:41:18.523Z,4.65
2023-03-21T19:43:54.085Z,5.18
2023-03-21T19:46:24.643Z,4.43
2023-03-21T19:48:56.226Z,4.57
2023-03-21T19:51:30.049Z,4.40
2023-03-21T19:54:03.206Z,4.43
2023-03-21T19:56:31.648Z,5.10
2023-03-21T19:58:58.908Z,4.40
2023-03-21T20:01:26.251Z,4.40
2023-03-21T20:03:53.098Z,3.63
2023-03-21T20:06:22.358Z,4.18
2023-03-21T20:09:27.330Z,3.63
2023-03-21T20:11:36.789Z,4.43
2023-03-21T20:14:03.823Z,3.70
2023-03-21T20:16:35.068Z,3.67
2023-03-21T20:19:08.633Z,4.20
2023-03-21T20:21:46.594Z,4.13
2023-03-21T20:24:16.747Z,4.13
2023-03-21T20:26:45.058Z,4.10
2023-03-21T20:30:14.624Z,4.55
2023-03-21T20:31:59.849Z,3.90
2023-03-21T20:34:26.606Z,4.10
2023-03-21T20:36:53.343Z,3.85
2023-03-21T20:39:20.160Z,4.25
2023-03-21T20:41:46.779Z,4.57
2023-03-21T20:44:44.843Z,4.45
2023-03-21T20:47:00.391Z,4.43
2023-03-21T20:49:28.393Z,5.07
2023-03-21T20:54:43.325Z,4.70
2023-03-21T20:57:10.072Z,3.83
2023-03-21T20:59:36.784Z,4.15
2023-03-21T21:02:03.663Z,4.50
2023-03-21T21:04:52.935Z,4.38
2023-03-21T21:07:21.250Z,3.88
2023-03-21T21:09:49.082Z,4.55
2023-03-21T21:12:17.339Z,4.78
2023-03-21T21:14:44.051Z,4.50
2023-03-21T21:19:57.745Z,4.80
2023-03-21T21:22:24.391Z,3.80
2023-03-21T21:24:51.231Z,4.25
2023-03-21T21:27:17.967Z,5.50
2023-03-21T21:29:47.554Z,3.95
2023-03-21T21:32:16.628Z,4.30
2023-03-21T21:34:43.566Z,4.28
2023-03-21T21:37:10.535Z,4.03
2023-03-21T21:39:38.507Z,4.60
2023-03-21T21:42:05.578Z,3.95
2023-03-21T21:44:32.314Z,5.38
2023-03-21T21:46:59.460Z,4.72
2023-03-21T21:49:26.860Z,4.50
2023-03-21T21:51:53.560Z,4.43
2023-03-21T21:54:20.205Z,5.13
2023-03-21T21:56:53.865Z,5.03
2023-03-21T21:59:22.094Z,4.15
2023-03-21T22:01:51.196Z,4.72
2023-03-21T22:04:27.612Z,4.97
2023-03-21T22:06:55.260Z,4.57
2023-03-21T22:09:22.662Z,4.60
2023-03-21T22:11:49.529Z,4.22
2023-03-21T22:14:16.197Z,4.10
2023-03-21T22:16:43.859Z,4.95
2023-03-21T22:19:10.635Z,5.43
2023-03-21T22:21:37.319Z,6.00
2023-03-21T22:24:04.269Z,6.57
2023-03-21T22:26:31.326Z,6.88
2023-03-21T22:28:59.815Z,7.07
2023-03-21T22:31:26.693Z,7.45
2023-03-21T22:33:53.591Z,9.20
2023-03-21T22:36:20.521Z,7.88
2023-03-21T22:38:47.821Z,6.25
2023-03-21T22:41:14.626Z,6.20
2023-03-21T22:43:41.485Z,6.78
2023-03-21T22:46:08.220Z,5.53
2023-03-21T22:48:34.973Z,5.45
2023-03-21T22:51:01.682Z,5.10
2023-03-21T22:53:28.439Z,5.30
2023-03-21T22:55:55.751Z,5.18
2023-03-21T22:58:22.836Z,5.38
2023-03-21T23:00:49.485Z,5.30
2023-03-21T23:03:16.943Z,5.53
2023-03-21T23:05:44.912Z,5.50
2023-03-21T23:08:12.344Z,4.72
2023-03-21T23:10:41.385Z,4.80
2023-03-21T23:13:08.191Z,4.38
2023-03-21T23:15:34.941Z,4.47
2023-03-21T23:18:01.629Z,5.15
2023-03-21T23:20:28.376Z,4.95
2023-03-21T23:22:55.383Z,5.15
2023-03-21T23:25:22.066Z,5.00
2023-03-21T23:27:48.931Z,5.30
2023-03-21T23:30:15.745Z,4.55
2023-03-21T23:32:42.816Z,5.18
2023-03-21T23:35:10.171Z,6.13
2023-03-21T23:37:36.798Z,5.28
2023-03-21T23:40:06.131Z,5.30
2023-03-21T23:42:34.081Z,4.72
2023-03-21T23:45:00.859Z,5.13
2023-03-21T23:47:27.544Z,5.00
2023-03-21T23:49:54.394Z,5.88
2023-03-21T23:52:21.326Z,4.85
2023-03-21T23:54:48.050Z,4.82
2023-03-21T23:57:14.933Z,5.03
2023-03-21T23:59:41.623Z,4.82
